Kadena Air Base
RODN : now visible

Airfield :











YOU CAN JOIN US ON...

 
LOGIN :

Register | Disclaimer

   EN    FR    IT 

 









Legend :    VFR   Marginal VFR   IFR   Intensive IFR   Very Intensive IFR
Visi :
Ceiling :
>= 8 km
>= 3000ft
5 to 8 km
1000 to 3000 ft
1500m to 5 km
500 to 1000 ft
800 to 1500m
200 to 500 ft
< 800m
< 200 ft
Symbols :   Thunderstorms  Fog  Heavy snow  Heavy precipitations  Wind > 20 kt






- Airport Elevation : 143 ft
- IATA code : DNA


RODN - Kadena Air Base

CURRENT METAR :
  • 211355Z 20013KT 10SM SCT020 26/24 A2988 RMK AO2A SLP123 T02580240 PWINO FZRANO $

EXPIRED METARs :
  • 211335Z 20012KT 10SM BKN020 26/24 A2988 RMK AO2A SLP123 PWINO FZRANO $
  • 211305Z AUTO 21008KT 10SM BKN019 26/24 A2988 RMK AO2 BKN V SCT SLP123 PWINO FZRANO $
  • 211155Z AUTO 20011KT 10SM CLR 26/24 A2986 RMK AO2 SLP117 T02600236 10290 20259 52012 PWINO FZRANO $
  • 211055Z AUTO 20009KT 10SM CLR 26/24 A2984 RMK AO2 SLP110 T02620236 PWINO FZRANO $
  • 210955Z AUTO 21011KT 10SM CLR 26/24 A2983 RMK AO2 SLP107 T02620238 PWINO FZRANO $

TAF TAF RODN
Valid from the 21 at 08:00 until the 22 at 14:00 UTC


210800Z 2108/2214 20010G15KT 9999 FEW012 FEW200 QNH2981INS
BECMG 2111/2112 21012KT 9999 SCT012 BKN025 QNH2986INS
TEMPO 2112/2114 BKN012
BECMG 2114/2115 21012KT 8000 BR VCSH BKN010 BKN020 QNH2984INS
BECMG 2123/2124 19012G18KT 9999 NSW SCT015 BKN020 QNH2981INS
BECMG 2208/2209 18010G15KT 9999 BKN015 BKN020 QNH2982INS TX30/2205Z TN25/2121Z
RJJJ FIR / Asia



MET'MAP, your aeronautical weather chart ! - Copyright ORBIFLY December 2007 - Disclaimer

ORBIFLY MET'MAP TEAM :

Programming & Development : Alexandra Zaïnal
Original concept : Baudouin d'Aumeries
Technical & hardware support : Manuel Goepfert
Assistance : Marc-Olivier Méhu




SOURCES & CREDITS :

   NOAA       Earth
Advisory